Time;durP1;ratioP1;P1;durP2;ratioP2;P2;SDS_P1;SDS_P2;PMS_P1;PMS_P2;Temp;Humidity;BMP_temperature;BMP_pressure;BME280_temperature;BME280_humidity;BME280_pressure;Samples;Min_cycle;Max_cycle;Signal;HPM_P1;HPM_P2
2022/04/23 00:01:55;;;;;;;6.72;1.80;;;10.00;99.90;;;;;;5033265;28;20040;-64
2022/04/23 00:05:00;;;;;;;5.03;1.70;;;10.00;99.90;;;;;;5033351;28;20064;-64
2022/04/23 00:08:04;;;;;;;5.03;1.60;;;10.00;99.90;;;;;;5032538;28;20415;-64
2022/04/23 00:11:08;;;;;;;3.15;1.65;;;10.10;99.90;;;;;;5033614;28;20060;-64
2022/04/23 00:14:12;;;;;;;2.22;1.83;;;10.00;99.90;;;;;;5032978;28;20044;-64
2022/04/23 00:17:18;;;;;;;10.07;3.13;;;10.00;99.90;;;;;;5032652;28;20043;-64
2022/04/23 00:20:23;;;;;;;8.88;2.80;;;9.70;99.90;;;;;;5032379;28;20044;-63
2022/04/23 00:23:29;;;;;;;8.55;2.55;;;9.40;99.90;;;;;;5032689;28;20046;-63
2022/04/23 00:26:35;;;;;;;6.38;3.90;;;9.40;99.90;;;;;;5032313;28;20547;-64
2022/04/23 00:29:39;;;;;;;8.43;4.20;;;9.40;99.90;;;;;;5033137;28;20037;-64
2022/04/23 00:32:43;;;;;;;7.90;4.55;;;9.40;99.90;;;;;;5032609;28;20049;-63
2022/04/23 00:35:49;;;;;;;10.27;3.90;;;9.40;99.90;;;;;;5032034;28;20041;-64
2022/04/23 00:38:53;;;;;;;6.95;4.80;;;9.40;99.90;;;;;;5032363;28;20057;-64
2022/04/23 00:41:59;;;;;;;6.88;4.25;;;9.40;99.90;;;;;;5031959;28;20030;-64
2022/04/23 00:45:03;;;;;;;11.07;3.83;;;9.40;99.90;;;;;;5032760;28;20361;-64
2022/04/23 00:48:07;;;;;;;5.72;3.58;;;9.40;99.90;;;;;;5032353;28;20048;-63
2022/04/23 00:51:13;;;;;;;8.77;4.80;;;9.30;99.90;;;;;;5031855;28;20034;-64
2022/04/23 00:54:18;;;;;;;9.45;5.55;;;9.30;99.90;;;;;;5032057;28;20033;-63
2022/04/23 00:57:22;;;;;;;6.78;4.97;;;9.30;99.90;;;;;;5031813;28;20037;-64
2022/04/23 01:00:26;;;;;;;11.80;5.25;;;9.40;99.90;;;;;;5032355;28;20042;-63
2022/04/23 01:03:31;;;;;;;13.57;3.83;;;9.40;99.90;;;;;;5032251;28;20052;-63
2022/04/23 01:06:35;;;;;;;7.57;3.88;;;9.30;99.90;;;;;;5031438;28;20395;-63
2022/04/23 01:09:44;;;;;;;4.30;3.13;;;9.40;99.90;;;;;;5032231;28;20049;-63
2022/04/23 01:12:47;;;;;;;13.90;7.63;;;9.50;99.90;;;;;;5031872;28;20377;-65
2022/04/23 01:16:04;;;;;;;5.78;4.07;;;9.50;99.90;;;;;;5031888;28;20048;-63
2022/04/23 01:19:08;;;;;;;5.43;3.85;;;9.70;99.90;;;;;;5032021;28;20034;-63
2022/04/23 01:22:12;;;;;;;5.00;3.78;;;9.70;99.90;;;;;;5031696;28;20038;-63
2022/04/23 01:25:17;;;;;;;8.00;6.65;;;9.70;99.90;;;;;;5032244;28;20045;-63
2022/04/23 01:28:23;;;;;;;6.47;5.15;;;9.70;99.90;;;;;;5031278;28;20045;-64
2022/04/23 01:31:28;;;;;;;8.63;6.70;;;9.70;99.90;;;;;;5031410;28;20041;-63
2022/04/23 01:34:33;;;;;;;11.25;5.60;;;9.70;99.90;;;;;;5031537;28;20488;-63
2022/04/23 01:37:37;;;;;;;6.00;4.70;;;9.60;99.90;;;;;;5031426;28;20048;-64
2022/04/23 01:40:42;;;;;;;7.30;5.57;;;9.60;99.90;;;;;;5032104;28;20033;-64
2022/04/23 01:43:46;;;;;;;10.35;8.00;;;9.60;99.90;;;;;;5031211;28;20041;-64
2022/04/23 01:46:51;;;;;;;11.90;5.88;;;9.60;99.90;;;;;;5030837;28;20056;-64
2022/04/23 01:49:55;;;;;;;5.88;4.15;;;9.60;99.90;;;;;;5031370;28;20310;-64
2022/04/23 01:52:59;;;;;;;2.05;1.55;;;9.70;99.90;;;;;;5030754;28;20033;-63
2022/04/23 01:56:03;;;;;;;1.55;1.20;;;9.70;99.90;;;;;;5030516;28;20041;-63
2022/04/23 01:59:07;;;;;;;2.30;1.17;;;9.70;99.90;;;;;;5031490;28;20427;-64
2022/04/23 02:02:11;;;;;;;4.10;1.20;;;9.70;99.90;;;;;;5031094;28;20469;-63
2022/04/23 02:05:15;;;;;;;2.78;1.20;;;9.70;99.90;;;;;;5030920;28;20046;-64
2022/04/23 02:08:19;;;;;;;1.27;1.10;;;9.80;99.90;;;;;;5030803;28;20041;-64
2022/04/23 02:11:23;;;;;;;5.80;3.85;;;9.90;99.90;;;;;;5031304;28;20041;-64
2022/04/23 02:14:28;;;;;;;8.15;2.65;;;9.80;99.90;;;;;;5030745;28;20037;-63
2022/04/23 02:17:34;;;;;;;4.70;2.70;;;9.70;99.90;;;;;;5030518;28;20445;-63
2022/04/23 02:20:38;;;;;;;5.60;3.53;;;9.60;99.90;;;;;;5030542;28;20037;-63
2022/04/23 02:23:43;;;;;;;7.03;3.35;;;9.70;99.90;;;;;;5030587;28;20045;-64
2022/04/23 02:26:48;;;;;;;6.32;3.85;;;9.70;99.90;;;;;;5030030;28;20042;-63
2022/04/23 02:29:54;;;;;;;12.70;5.32;;;9.70;99.90;;;;;;5030671;28;20045;-64
2022/04/23 02:32:58;;;;;;;7.05;5.22;;;9.80;99.90;;;;;;5030354;28;20045;-64
2022/04/23 02:36:02;;;;;;;5.25;3.65;;;9.70;99.90;;;;;;5030168;28;20049;-64
2022/04/23 02:39:05;;;;;;;4.85;2.40;;;9.70;99.90;;;;;;5030294;28;20349;-64
2022/04/23 02:42:09;;;;;;;4.22;2.00;;;9.60;99.90;;;;;;5029540;28;20037;-64
2022/04/23 02:45:15;;;;;;;2.83;2.17;;;9.60;99.90;;;;;;5029045;28;20037;-64
2022/04/23 02:48:20;;;;;;;5.95;1.70;;;9.60;99.90;;;;;;5029828;28;20037;-63
2022/04/23 02:51:24;;;;;;;3.08;1.35;;;9.60;99.90;;;;;;5030152;28;20045;-63
2022/04/23 02:54:28;;;;;;;4.63;1.65;;;9.60;99.90;;;;;;5029306;28;20049;-63
2022/04/23 02:57:32;;;;;;;1.50;1.20;;;9.50;99.90;;;;;;5030006;28;20025;-64
2022/04/23 03:00:39;;;;;;;2.70;1.33;;;9.50;99.90;;;;;;5029667;28;20038;-63
2022/04/23 03:03:43;;;;;;;1.80;1.45;;;9.60;99.90;;;;;;5029809;28;20033;-63
2022/04/23 03:06:47;;;;;;;1.70;1.30;;;9.70;99.90;;;;;;5029285;28;20034;-63
2022/04/23 03:09:51;;;;;;;5.80;1.10;;;9.80;99.90;;;;;;5030117;28;20041;-63
2022/04/23 03:12:57;;;;;;;2.38;1.25;;;9.90;99.90;;;;;;5030156;28;20037;-64
2022/04/23 03:16:01;;;;;;;2.65;1.50;;;9.90;99.90;;;;;;5029761;28;20042;-64
2022/04/23 03:19:05;;;;;;;3.45;1.40;;;9.60;99.90;;;;;;5029835;28;20042;-63
2022/04/23 03:22:10;;;;;;;4.07;1.58;;;9.50;99.90;;;;;;5029719;28;20045;-63
2022/04/23 03:25:14;;;;;;;2.85;1.80;;;9.40;99.90;;;;;;5029647;28;20049;-63
2022/04/23 03:28:20;;;;;;;5.05;2.60;;;9.40;99.90;;;;;;5029537;28;20042;-63
2022/04/23 03:31:24;;;;;;;3.67;2.20;;;9.40;99.90;;;;;;5029719;28;20373;-64
2022/04/23 03:34:28;;;;;;;4.95;2.85;;;9.20;99.90;;;;;;5029389;28;20049;-64
2022/04/23 03:37:36;;;;;;;12.82;4.75;;;9.20;99.90;;;;;;5029628;28;20038;-63
2022/04/23 03:40:40;;;;;;;126.25;9.80;;;9.00;99.90;;;;;;5029742;28;20055;-64
2022/04/23 03:43:44;;;;;;;827.47;57.05;;;9.00;99.90;;;;;;5029438;28;20396;-64
2022/04/23 03:46:48;;;;;;;490.55;31.90;;;8.90;99.90;;;;;;5029389;28;20503;-64
2022/04/23 03:49:52;;;;;;;45.58;8.23;;;8.80;99.90;;;;;;5029516;28;20037;-63
2022/04/23 03:52:56;;;;;;;13.35;7.15;;;8.90;99.90;;;;;;5030421;28;20079;-63
2022/04/23 03:56:00;;;;;;;9.25;7.00;;;9.00;99.90;;;;;;5032734;28;20500;-63
2022/04/23 03:59:05;;;;;;;7.38;6.30;;;9.00;99.90;;;;;;5033068;28;20037;-63
2022/04/23 04:02:09;;;;;;;8.40;6.20;;;9.10;99.90;;;;;;5033355;28;20041;-63
2022/04/23 04:05:13;;;;;;;8.18;4.93;;;9.00;99.90;;;;;;5032974;28;20041;-63
2022/04/23 04:08:17;;;;;;;7.00;4.68;;;9.00;99.90;;;;;;5032756;28;20503;-64
2022/04/23 04:11:22;;;;;;;5.95;4.10;;;9.00;99.90;;;;;;5033013;28;20037;-64
2022/04/23 04:14:26;;;;;;;3.25;2.58;;;9.00;99.90;;;;;;5033138;28;20050;-63
2022/04/23 04:17:30;;;;;;;4.40;2.00;;;9.10;99.90;;;;;;5032979;28;20042;-64
2022/04/23 04:20:34;;;;;;;4.07;2.10;;;9.20;99.90;;;;;;5033318;28;20037;-63
2022/04/23 04:23:39;;;;;;;3.90;3.05;;;9.30;99.90;;;;;;5033261;28;20049;-64
2022/04/23 04:26:45;;;;;;;6.18;2.60;;;9.30;99.90;;;;;;5032615;28;20037;-63
2022/04/23 04:29:49;;;;;;;3.75;2.67;;;9.30;99.90;;;;;;5032709;28;20049;-64
2022/04/23 04:32:53;;;;;;;3.65;3.00;;;9.20;99.90;;;;;;5032828;28;20048;-63
2022/04/23 04:35:56;;;;;;;4.35;3.20;;;9.20;99.90;;;;;;5032427;28;20049;-63
2022/04/23 04:39:00;;;;;;;6.20;3.83;;;9.30;99.90;;;;;;5032834;28;20041;-63
2022/04/23 04:42:06;;;;;;;7.18;3.60;;;9.30;99.90;;;;;;5032541;28;20041;-63
2022/04/23 04:45:10;;;;;;;3.40;3.00;;;9.30;99.90;;;;;;5031855;28;20049;-63
2022/04/23 04:48:13;;;;;;;4.30;3.25;;;9.30;99.90;;;;;;5032082;28;20046;-63
2022/04/23 04:51:17;;;;;;;4.65;2.45;;;9.30;99.90;;;;;;5032432;28;20049;-63
2022/04/23 04:54:21;;;;;;;6.40;2.80;;;9.30;99.90;;;;;;5031774;28;20037;-63
2022/04/23 04:57:25;;;;;;;5.88;2.70;;;9.50;99.90;;;;;;5031829;28;20068;-63
2022/04/23 05:00:30;;;;;;;3.97;3.03;;;9.60;99.90;;;;;;5032519;28;20369;-63
2022/04/23 05:03:34;;;;;;;11.85;4.95;;;9.50;99.90;;;;;;5033077;28;20045;-63
2022/04/23 05:06:38;;;;;;;9.40;5.03;;;9.30;99.90;;;;;;5031727;28;20053;-64
2022/04/23 05:09:42;;;;;;;788.83;45.53;;;9.10;99.90;;;;;;5032085;28;20377;-63
2022/04/23 05:12:46;;;;;;;1302.15;66.38;;;8.90;99.90;;;;;;5032406;28;20519;-64
2022/04/23 05:15:51;;;;;;;1559.18;90.63;;;8.50;99.90;;;;;;5031709;28;20439;-64
2022/04/23 05:18:55;;;;;;;1417.47;82.78;;;8.50;99.90;;;;;;5032053;28;20245;-64
2022/04/23 05:21:59;;;;;;;1373.22;85.32;;;8.50;99.90;;;;;;5031692;28;20060;-63
2022/04/23 05:25:03;;;;;;;1380.25;84.82;;;8.50;99.90;;;;;;5032811;28;20052;-63
2022/04/23 05:28:08;;;;;;;1199.15;75.95;;;8.50;99.90;;;;;;5029164;28;20048;-64
2022/04/23 05:31:12;;;;;;;531.72;42.15;;;8.60;99.90;;;;;;5031701;28;20040;-64
2022/04/23 05:34:16;;;;;;;277.40;33.88;;;8.70;99.90;;;;;;5030985;28;20053;-64
2022/04/23 05:37:20;;;;;;;83.10;15.77;;;9.00;99.90;;;;;;5030973;28;20048;-63
2022/04/23 05:40:24;;;;;;;242.35;20.58;;;9.20;99.90;;;;;;5030867;28;20393;-64
2022/04/23 05:43:27;;;;;;;307.38;22.70;;;9.40;99.90;;;;;;5031130;28;20508;-63
2022/04/23 05:46:31;;;;;;;343.65;28.15;;;9.60;99.90;;;;;;5030523;28;20045;-64
2022/04/23 05:49:38;;;;;;;270.98;19.13;;;9.70;99.90;;;;;;5031115;28;20510;-64
2022/04/23 05:52:41;;;;;;;479.02;32.53;;;9.80;99.90;;;;;;5030817;28;20057;-63
2022/04/23 05:55:46;;;;;;;256.25;19.38;;;10.00;99.90;;;;;;5030819;28;20052;-63
2022/04/23 05:58:50;;;;;;;246.05;16.30;;;10.20;99.90;;;;;;5030268;28;20361;-63
2022/04/23 06:01:53;;;;;;;66.38;11.02;;;10.20;99.90;;;;;;5024452;28;20041;-63
2022/04/23 06:04:59;;;;;;;18.27;10.48;;;10.30;99.90;;;;;;5031608;28;20053;-63
2022/04/23 06:08:03;;;;;;;13.50;9.20;;;10.30;99.90;;;;;;5028000;28;20053;-63
2022/04/23 06:11:07;;;;;;;13.60;8.15;;;10.40;99.90;;;;;;5029138;28;20057;-63
2022/04/23 06:14:10;;;;;;;13.40;8.20;;;10.50;99.90;;;;;;5031545;28;20052;-72
2022/04/23 06:17:14;;;;;;;10.15;6.57;;;10.60;99.90;;;;;;5019511;28;20048;-72
2022/04/23 06:20:19;;;;;;;9.32;5.35;;;11.50;99.90;;;;;;5025742;28;20385;-72
2022/04/23 06:23:23;;;;;;;6.55;4.47;;;12.60;99.90;;;;;;5027379;28;20052;-72
2022/04/23 06:26:27;;;;;;;4.75;3.88;;;14.40;99.90;;;;;;5030813;28;20040;-72
2022/04/23 06:29:31;;;;;;;4.97;3.60;;;14.20;99.90;;;;;;5023848;28;20052;-72
2022/04/23 06:32:39;;;;;;;5.05;3.55;;;15.30;99.90;;;;;;5027682;28;20048;-71
2022/04/23 06:35:44;;;;;;;7.90;3.45;;;14.70;99.90;;;;;;5027307;28;20052;-63
2022/04/23 06:38:48;;;;;;;5.20;3.15;;;14.30;99.90;;;;;;5029468;28;20044;-63
2022/04/23 06:41:53;;;;;;;6.07;2.67;;;15.70;99.90;;;;;;5027258;28;20049;-64
2022/04/23 06:44:58;;;;;;;3.97;2.17;;;17.90;99.90;;;;;;5018554;28;20057;-63
2022/04/23 06:48:06;;;;;;;6.95;2.88;;;18.20;99.90;;;;;;5030397;28;20116;-63
2022/04/23 06:51:10;;;;;;;3.95;3.13;;;17.10;99.90;;;;;;5022895;28;20116;-64
2022/04/23 06:54:14;;;;;;;6.95;4.00;;;17.50;99.90;;;;;;5031535;28;20036;-64
2022/04/23 06:57:18;;;;;;;9.45;5.18;;;15.40;99.90;;;;;;5024478;28;20041;-72
2022/04/23 07:00:24;;;;;;;6.13;4.32;;;15.40;99.90;;;;;;5031496;28;20052;-72
2022/04/23 07:03:28;;;;;;;5.65;3.53;;;16.70;99.90;;;;;;5031291;28;20045;-71
2022/04/23 07:06:33;;;;;;;4.53;2.20;;;15.60;99.90;;;;;;5029487;28;20049;-72
2022/04/23 07:09:41;;;;;;;3.08;2.35;;;16.90;99.90;;;;;;5025471;28;20044;-72
2022/04/23 07:12:46;;;;;;;5.32;2.50;;;18.00;99.90;;;;;;5027827;28;20052;-64
2022/04/23 07:15:50;;;;;;;4.30;2.42;;;18.90;99.90;;;;;;5030824;28;20397;-73
2022/04/23 07:18:54;;;;;;;3.08;2.00;;;16.60;99.90;;;;;;5030647;28;20052;-72
2022/04/23 07:21:57;;;;;;;2.38;1.30;;;17.80;99.90;;;;;;5031623;28;20040;-73
2022/04/23 07:25:03;;;;;;;3.75;2.33;;;17.80;99.90;;;;;;5030286;28;20053;-64
2022/04/23 07:28:07;;;;;;;3.47;1.30;;;16.60;99.90;;;;;;5030988;28;20607;-64
2022/04/23 07:31:11;;;;;;;4.22;1.08;;;18.30;99.90;;;;;;5015338;28;20425;-65
2022/04/23 07:37:41;;;;;;;3.55;1.52;;;18.00;99.90;;;;;;5030794;28;20047;-73
2022/04/23 07:40:50;;;;;;;2.00;1.60;;;17.50;99.90;;;;;;5030982;28;20128;-72
2022/04/23 07:43:57;;;;;;;4.28;1.90;;;17.70;99.90;;;;;;5036302;28;20048;-64
2022/04/23 07:47:01;;;;;;;2.17;1.38;;;16.90;99.90;;;;;;5034035;28;20044;-73
2022/04/23 07:50:06;;;;;;;5.65;1.55;;;17.40;99.90;;;;;;5033522;28;20725;-72
2022/04/23 07:53:11;;;;;;;6.95;1.88;;;17.40;99.90;;;;;;5033193;28;20044;-72
2022/04/23 07:56:16;;;;;;;2.63;1.45;;;16.60;99.90;;;;;;5026746;28;20049;-72
2022/04/23 07:59:21;;;;;;;4.45;1.90;;;16.20;99.90;;;;;;5035202;28;20052;-72
2022/04/23 08:02:25;;;;;;;4.93;1.92;;;15.00;99.90;;;;;;5036084;28;20041;-72
2022/04/23 08:05:30;;;;;;;8.88;2.10;;;14.70;99.90;;;;;;5034034;28;20045;-72
2022/04/23 08:08:34;;;;;;;6.65;1.85;;;14.70;99.90;;;;;;5034360;28;20048;-74
2022/04/23 08:11:38;;;;;;;4.10;1.83;;;14.90;99.90;;;;;;5032851;28;20067;-64
2022/04/23 08:14:42;;;;;;;2.85;1.40;;;14.50;99.90;;;;;;5027297;28;20064;-63
2022/04/23 08:17:47;;;;;;;2.60;1.42;;;15.00;99.90;;;;;;5033149;28;20045;-64
2022/04/23 08:20:54;;;;;;;6.13;2.83;;;15.70;99.90;;;;;;5031445;28;20048;-64
2022/04/23 08:23:58;;;;;;;4.70;1.98;;;16.30;99.90;;;;;;5034480;28;20049;-72
2022/04/23 08:27:03;;;;;;;3.13;1.60;;;17.50;99.90;;;;;;5029592;28;20056;-72
2022/04/23 08:37:14;;;;;;;3.30;1.08;;;19.60;99.90;;;;;;4953513;28;20054;-64
2022/04/23 08:40:19;;;;;;;2.75;1.20;;;20.30;99.90;;;;;;4951304;28;20042;-64
2022/04/23 08:43:23;;;;;;;3.65;1.20;;;20.50;99.90;;;;;;5033965;28;20393;-64
2022/04/23 08:46:30;;;;;;;2.15;0.80;;;19.90;99.90;;;;;;5029235;28;20048;-64
2022/04/23 08:49:46;;;;;;;1.35;0.80;;;21.20;99.90;;;;;;5028201;28;20048;-72
2022/04/23 08:52:55;;;;;;;2.30;0.85;;;22.50;99.90;;;;;;5013250;28;20066;-74
2022/04/23 08:56:01;;;;;;;2.85;1.65;;;24.20;99.60;;;;;;5012222;28;20049;-64
2022/04/23 08:59:06;;;;;;;2.28;1.23;;;25.70;96.80;;;;;;5012109;28;20068;-64
2022/04/23 09:02:14;;;;;;;3.75;0.55;;;26.10;95.80;;;;;;5025657;28;20404;-72
2022/04/23 09:05:24;;;;;;;0.77;0.60;;;26.60;95.30;;;;;;5015832;28;20052;-65
2022/04/23 09:08:29;;;;;;;2.45;0.63;;;25.80;94.10;;;;;;5026662;28;20040;-64
2022/04/23 09:11:36;;;;;;;2.15;0.80;;;26.10;95.40;;;;;;5032749;28;20052;-64
2022/04/23 09:14:41;;;;;;;1.80;0.85;;;25.80;94.80;;;;;;5033138;28;20038;-65
2022/04/23 09:24:55;;;;;;;1.10;0.73;;;27.70;92.30;;;;;;4965817;28;20634;-65
2022/04/23 09:28:20;;;;;;;5.20;0.82;;;24.90;94.60;;;;;;5013029;28;20048;-65
2022/04/23 09:31:26;;;;;;;3.10;0.73;;;22.90;96.50;;;;;;5013851;28;20105;-64
2022/04/23 09:35:06;;;;;;;1.77;0.98;;;23.20;97.60;;;;;;5029641;28;20044;-72
2022/04/23 09:38:18;;;;;;;1.40;0.82;;;20.90;99.00;;;;;;5017171;28;20064;-64
2022/04/23 09:41:34;;;;;;;1.92;0.70;;;23.30;98.20;;;;;;5031402;28;20052;-72
2022/04/23 09:44:38;;;;;;;3.30;0.70;;;25.30;96.40;;;;;;5026681;28;20045;-73
2022/04/23 09:47:42;;;;;;;2.58;0.70;;;25.90;94.70;;;;;;5025576;28;20057;-72
2022/04/23 09:50:48;;;;;;;11.93;1.75;;;27.90;93.50;;;;;;5031516;28;20052;-73
2022/04/23 09:53:55;;;;;;;3.28;1.10;;;24.50;94.40;;;;;;5030936;28;20515;-72
2022/04/23 09:57:00;;;;;;;1.60;0.90;;;26.30;94.50;;;;;;5031209;28;20431;-73
2022/04/23 10:00:06;;;;;;;1.55;0.80;;;26.50;94.20;;;;;;5039498;28;20045;-72
2022/04/23 10:03:12;;;;;;;1.58;0.88;;;22.90;94.30;;;;;;5033041;28;20499;-64
2022/04/23 10:06:19;;;;;;;4.47;1.00;;;23.30;97.00;;;;;;5031200;28;20056;-64
2022/04/23 10:09:27;;;;;;;1.25;0.80;;;23.20;97.20;;;;;;5032920;28;20044;-64
2022/04/23 10:12:33;;;;;;;3.75;0.95;;;20.60;99.60;;;;;;5032906;28;20071;-72
2022/04/23 10:15:39;;;;;;;4.90;1.45;;;19.80;99.90;;;;;;5032141;28;20048;-73
2022/04/23 10:18:43;;;;;;;2.50;1.13;;;18.80;99.90;;;;;;5014238;28;20499;-65
2022/04/23 10:22:19;;;;;;;4.22;1.10;;;20.90;99.90;;;;;;5026732;28;20396;-64
2022/04/23 10:25:24;;;;;;;2.83;0.80;;;21.20;99.90;;;;;;5016917;28;20037;-64
2022/04/23 10:28:28;;;;;;;2.25;1.05;;;22.50;99.90;;;;;;5025554;28;20044;-64
2022/04/23 10:31:33;;;;;;;1.80;1.05;;;23.40;99.00;;;;;;5030941;28;20131;-64
2022/04/23 10:34:38;;;;;;;2.80;1.20;;;23.20;98.70;;;;;;5031156;28;20121;-63
2022/04/23 10:37:44;;;;;;;3.05;1.10;;;21.00;99.90;;;;;;5020463;28;20483;-64
2022/04/23 10:40:50;;;;;;;3.70;1.10;;;21.40;99.90;;;;;;5030745;28;20040;-64
2022/04/23 10:44:04;;;;;;;2.17;1.00;;;24.50;99.60;;;;;;5030734;28;20052;-64
2022/04/23 10:47:29;;;;;;;3.85;1.17;;;25.50;95.50;;;;;;5032110;28;20056;-64
2022/04/23 10:50:34;;;;;;;3.25;1.20;;;25.30;95.50;;;;;;5032994;28;20049;-64
2022/04/23 10:53:38;;;;;;;1.48;0.93;;;27.00;96.50;;;;;;5032518;28;20052;-64
2022/04/23 10:56:47;;;;;;;1.50;0.80;;;27.00;94.00;;;;;;5031003;28;20372;-64
2022/04/23 10:59:52;;;;;;;3.72;1.15;;;24.10;95.90;;;;;;5031224;28;20389;-64
2022/04/23 11:03:11;;;;;;;5.40;1.35;;;23.80;95.30;;;;;;5018222;28;20049;-64
2022/04/23 11:13:27;;;;;;;3.42;1.27;;;23.00;97.50;;;;;;4972313;28;20537;-64
2022/04/23 11:16:32;;;;;;;5.25;1.33;;;23.50;98.20;;;;;;5031211;28;20519;-64
2022/04/23 11:19:41;;;;;;;3.35;1.05;;;23.70;96.00;;;;;;5030700;28;20392;-72
2022/04/23 11:22:45;;;;;;;3.40;1.30;;;23.40;96.80;;;;;;5030795;28;20511;-64
2022/04/23 11:25:56;;;;;;;4.13;1.30;;;22.50;97.30;;;;;;5030359;28;20045;-64
2022/04/23 11:29:01;;;;;;;3.13;1.23;;;21.90;98.40;;;;;;5028514;28;20049;-72
2022/04/23 11:32:05;;;;;;;3.08;1.02;;;22.00;97.90;;;;;;5030540;28;20117;-64
2022/04/23 11:35:10;;;;;;;3.17;1.35;;;21.90;98.30;;;;;;5030072;28;20045;-64
2022/04/23 11:38:22;;;;;;;4.03;1.30;;;21.80;99.50;;;;;;5030110;28;20046;-72
2022/04/23 11:41:27;;;;;;;3.45;1.20;;;20.80;99.90;;;;;;5031170;28;20041;-72
2022/04/23 11:44:49;;;;;;;3.22;1.27;;;20.50;99.90;;;;;;5030177;28;20045;-73
2022/04/23 11:47:53;;;;;;;2.55;1.27;;;21.80;99.90;;;;;;5030154;28;20432;-65
2022/04/23 11:51:07;;;;;;;1.63;0.95;;;21.70;99.80;;;;;;5030152;28;20104;-72
2022/04/23 11:54:12;;;;;;;5.07;1.00;;;21.00;99.90;;;;;;5030258;28;20417;-71
2022/04/23 11:57:18;;;;;;;5.50;1.45;;;20.80;99.90;;;;;;5029613;28;20052;-73
2022/04/23 12:00:24;;;;;;;3.40;1.52;;;21.20;99.90;;;;;;5030301;28;20053;-65
2022/04/23 12:03:28;;;;;;;3.70;1.10;;;21.60;99.60;;;;;;5030726;28;20498;-65
2022/04/23 12:06:52;;;;;;;3.08;1.30;;;21.20;99.30;;;;;;5030515;28;20404;-63
2022/04/23 12:10:00;;;;;;;5.72;1.45;;;20.90;99.90;;;;;;5029789;28;20396;-64
2022/04/23 12:13:10;;;;;;;3.03;1.20;;;20.60;99.90;;;;;;5029750;28;20060;-64
2022/04/23 12:16:37;;;;;;;2.78;1.38;;;20.80;99.90;;;;;;5032851;28;20041;-64
2022/04/23 12:19:41;;;;;;;2.83;1.20;;;20.70;99.90;;;;;;5034563;28;20388;-64
2022/04/23 12:22:55;;;;;;;2.80;1.05;;;21.10;99.90;;;;;;5033860;28;20048;-73
2022/04/23 12:26:08;;;;;;;4.95;1.10;;;21.00;99.90;;;;;;5033817;28;20060;-71
2022/04/23 12:43:20;;;;;;;5.20;1.17;;;21.30;99.90;;;;;;5033567;28;20040;-73
2022/04/23 12:46:24;;;;;;;3.28;1.30;;;20.50;99.90;;;;;;5032392;28;20040;-72
2022/04/23 12:49:50;;;;;;;1.90;0.90;;;20.40;99.90;;;;;;5032661;28;20339;-72
2022/04/23 12:52:55;;;;;;;2.03;1.02;;;20.30;99.90;;;;;;5031937;28;20048;-72
2022/04/23 12:56:01;;;;;;;4.38;1.30;;;20.00;99.90;;;;;;5019970;28;20045;-72
2022/04/23 12:59:06;;;;;;;3.25;1.10;;;20.60;99.90;;;;;;5032956;28;20050;-72
2022/04/23 13:02:09;;;;;;;4.35;0.98;;;20.60;99.90;;;;;;5033253;28;20583;-72
2022/04/23 13:05:14;;;;;;;2.03;1.10;;;21.10;99.90;;;;;;5032469;28;20068;-63
2022/04/23 13:11:42;;;;;;;4.07;1.85;;;21.20;98.20;;;;;;5033449;28;20021;-64
2022/04/23 13:14:48;;;;;;;7.20;1.52;;;21.00;99.80;;;;;;5032958;28;20455;-72
2022/04/23 13:17:55;;;;;;;4.43;1.30;;;21.40;98.40;;;;;;5033066;28;20396;-64
2022/04/23 13:20:59;;;;;;;5.30;1.25;;;21.80;99.90;;;;;;5033170;28;20040;-72
2022/04/23 13:24:04;;;;;;;3.75;1.23;;;23.00;98.00;;;;;;5033905;28;20036;-72
2022/04/23 13:27:07;;;;;;;6.35;1.20;;;22.30;99.10;;;;;;5031286;28;20044;-72
2022/04/23 13:30:12;;;;;;;5.38;1.30;;;23.30;98.30;;;;;;5032253;28;20048;-72
2022/04/23 13:33:18;;;;;;;1.55;1.00;;;22.30;99.00;;;;;;5030861;28;20048;-72
2022/04/23 13:36:22;;;;;;;4.18;1.27;;;22.80;98.50;;;;;;5032728;28;20068;-72
2022/04/23 13:39:30;;;;;;;2.92;1.13;;;22.30;99.00;;;;;;5031441;28;20053;-64
2022/04/23 13:42:34;;;;;;;3.25;1.10;;;22.50;96.90;;;;;;5032634;28;20040;-64
2022/04/23 13:45:42;;;;;;;5.22;1.30;;;21.70;99.20;;;;;;5032691;28;20049;-71
2022/04/23 13:48:47;;;;;;;4.72;1.50;;;21.20;98.80;;;;;;5031395;28;20419;-62
2022/04/23 13:51:51;;;;;;;4.57;1.10;;;21.00;99.00;;;;;;5032510;28;20049;-65
2022/04/23 13:54:56;;;;;;;2.15;1.08;;;21.40;99.90;;;;;;5033714;28;20060;-72
2022/04/23 13:58:00;;;;;;;4.30;1.30;;;20.90;99.30;;;;;;5032373;28;20056;-72
2022/04/23 14:01:04;;;;;;;4.28;1.40;;;21.50;99.90;;;;;;5032940;28;20048;-64
2022/04/23 14:10:54;;;;;;;5.28;1.33;;;21.20;99.90;;;;;;5031771;28;20049;-64
2022/04/23 14:14:00;;;;;;;5.05;1.20;;;21.20;99.50;;;;;;5032893;28;20044;-64
2022/04/23 14:17:06;;;;;;;4.25;1.55;;;20.60;99.90;;;;;;5031768;28;20054;-72
2022/04/23 14:20:10;;;;;;;6.53;1.50;;;20.70;99.90;;;;;;5031625;28;20036;-72
2022/04/23 14:23:14;;;;;;;3.72;1.40;;;20.90;99.90;;;;;;5031976;28;20409;-72
2022/04/23 14:26:19;;;;;;;5.25;1.35;;;20.30;99.90;;;;;;5031642;28;20048;-64
2022/04/23 14:29:23;;;;;;;3.85;1.50;;;20.20;99.90;;;;;;5030886;28;20052;-64
2022/04/23 14:32:27;;;;;;;3.90;1.23;;;19.70;99.90;;;;;;5031909;28;20416;-64
2022/04/23 14:35:34;;;;;;;3.10;1.40;;;19.30;99.90;;;;;;5031788;28;20048;-64
2022/04/23 14:38:38;;;;;;;4.03;1.42;;;19.30;99.90;;;;;;5031858;28;20048;-72
2022/04/23 14:41:42;;;;;;;2.33;1.40;;;19.20;99.90;;;;;;5031745;28;20052;-64
2022/04/23 14:44:47;;;;;;;6.03;1.50;;;19.30;99.90;;;;;;5032357;28;20503;-71
2022/04/23 14:47:52;;;;;;;5.28;1.60;;;19.70;99.90;;;;;;5030493;28;20044;-63
2022/04/23 14:54:24;;;;;;;4.13;1.88;;;19.40;99.90;;;;;;5030785;28;20068;-64
2022/04/23 14:57:28;;;;;;;4.45;1.80;;;19.40;99.90;;;;;;5031598;28;20068;-63
2022/04/23 15:00:32;;;;;;;3.83;1.60;;;19.70;99.90;;;;;;5031739;28;20060;-63
2022/04/23 15:03:36;;;;;;;4.43;1.50;;;19.90;99.90;;;;;;5030027;28;20040;-64
2022/04/23 15:06:41;;;;;;;5.70;1.38;;;19.30;99.90;;;;;;5031683;28;20396;-64
2022/04/23 15:09:46;;;;;;;2.85;1.27;;;19.10;99.90;;;;;;5031241;28;20053;-71
2022/04/23 15:12:52;;;;;;;4.63;1.55;;;19.20;99.90;;;;;;5031636;28;20052;-72
2022/04/23 15:15:57;;;;;;;2.97;1.30;;;19.00;99.90;;;;;;5031563;28;20052;-72
2022/04/23 15:19:03;;;;;;;5.70;1.25;;;18.80;99.90;;;;;;5030872;28;20040;-64
2022/04/23 15:22:08;;;;;;;4.40;1.10;;;18.50;99.90;;;;;;5031507;28;20392;-72
2022/04/23 15:25:17;;;;;;;3.35;1.35;;;18.50;99.90;;;;;;5031683;28;20036;-71
2022/04/23 15:28:22;;;;;;;3.38;1.30;;;18.40;99.90;;;;;;5031306;28;20049;-64
2022/04/23 15:31:26;;;;;;;3.88;1.60;;;18.20;99.90;;;;;;5031614;28;20045;-64
2022/04/23 15:34:30;;;;;;;4.95;1.40;;;18.20;99.90;;;;;;5031449;28;20123;-72
2022/04/23 15:37:34;;;;;;;7.22;1.58;;;18.10;99.90;;;;;;5030520;28;20056;-72
2022/04/23 15:40:38;;;;;;;4.15;1.45;;;18.00;99.90;;;;;;5031144;28;20037;-64
2022/04/23 15:43:43;;;;;;;3.83;1.77;;;18.00;99.90;;;;;;5030428;28;20041;-72
2022/04/23 15:46:48;;;;;;;4.63;2.15;;;18.10;99.90;;;;;;5029925;28;20068;-64
2022/04/23 15:49:52;;;;;;;21.65;13.95;;;18.00;99.90;;;;;;5033728;28;20044;-64
2022/04/23 15:52:57;;;;;;;12.23;8.35;;;18.00;99.90;;;;;;5033966;28;20044;-72
2022/04/23 15:56:01;;;;;;;4.35;3.08;;;17.90;99.90;;;;;;5033781;28;20048;-72
2022/04/23 15:59:06;;;;;;;6.90;2.67;;;18.10;99.90;;;;;;5034365;28;20044;-64
2022/04/23 16:02:10;;;;;;;10.23;3.03;;;18.40;99.90;;;;;;5034086;28;20044;-72
2022/04/23 16:05:14;;;;;;;7.25;3.03;;;18.50;99.90;;;;;;5033277;28;20396;-64
2022/04/23 16:08:18;;;;;;;5.43;2.05;;;18.60;99.90;;;;;;5035037;28;20060;-72
2022/04/23 16:11:22;;;;;;;4.15;1.90;;;18.70;99.90;;;;;;5034180;28;20052;-72
2022/04/23 16:14:26;;;;;;;7.85;1.90;;;18.70;99.90;;;;;;5033676;28;20072;-71
2022/04/23 16:17:29;;;;;;;6.97;3.10;;;18.70;99.90;;;;;;5033897;28;20048;-64
2022/04/23 16:20:33;;;;;;;7.78;3.50;;;18.80;99.90;;;;;;5034185;28;20064;-71
2022/04/23 16:23:39;;;;;;;6.47;2.90;;;18.80;99.90;;;;;;5034177;28;20037;-72
2022/04/23 16:26:43;;;;;;;11.30;4.00;;;18.70;99.90;;;;;;5020478;28;20049;-64
2022/04/23 16:29:47;;;;;;;7.38;3.00;;;18.60;99.90;;;;;;5033848;28;20044;-63
2022/04/23 16:32:51;;;;;;;5.13;2.20;;;18.40;99.90;;;;;;5034011;28;20575;-72
2022/04/23 16:49:33;;;;;;;4.20;2.10;;;18.20;99.90;;;;;;5033197;28;20045;-64
2022/04/23 16:52:37;;;;;;;4.90;2.30;;;18.10;99.90;;;;;;5033053;28;20040;-72
2022/04/23 16:55:41;;;;;;;5.00;1.88;;;18.00;99.90;;;;;;5033240;28;20487;-64
2022/04/23 16:58:45;;;;;;;5.05;1.70;;;17.90;99.90;;;;;;5033424;28;20052;-63
2022/04/23 17:01:49;;;;;;;5.78;1.80;;;17.80;99.90;;;;;;5031960;28;20052;-72
2022/04/23 17:04:53;;;;;;;5.35;2.00;;;17.70;99.90;;;;;;5031856;28;20056;-72
2022/04/23 17:07:57;;;;;;;4.63;1.60;;;17.60;99.90;;;;;;5033446;28;20550;-63
2022/04/23 17:11:01;;;;;;;12.52;4.28;;;17.60;99.90;;;;;;5032797;28;20389;-64
2022/04/23 17:14:05;;;;;;;4.50;1.92;;;17.50;99.90;;;;;;5033213;28;20056;-63